Time;durP1;ratioP1;P1;durP2;ratioP2;P2;SDS_P1;SDS_P2;PMS_P1;PMS_P2;Temp;Humidity;BMP_temperature;BMP_pressure;BME280_temperature;BME280_humidity;BME280_pressure;Samples;Min_cycle;Max_cycle;Signal;HPM_P1;HPM_P2
2022/07/12 00:00:13;;;;;;;1.70;1.60;;;;;;;16.71;44.30;95331.75;5118701;28;20510;-69
2022/07/12 00:02:39;;;;;;;2.13;1.70;;;;;;;16.71;44.29;95336.53;5118824;28;20184;-69
2022/07/12 00:05:07;;;;;;;2.75;2.03;;;;;;;16.71;44.30;95328.97;5118937;28;20180;-69
2022/07/12 00:07:35;;;;;;;2.10;1.77;;;;;;;16.73;44.55;95329.38;5118835;28;20211;-69
2022/07/12 00:10:02;;;;;;;1.90;1.80;;;;;;;16.71;44.39;95334.53;5118833;28;20188;-69
2022/07/12 00:12:29;;;;;;;3.05;2.00;;;;;;;16.69;44.58;95336.09;5117904;28;20608;-69
2022/07/12 00:14:56;;;;;;;2.00;1.90;;;;;;;16.67;44.33;95328.16;5117678;28;20199;-69
2022/07/12 00:17:22;;;;;;;1.70;1.60;;;;;;;16.67;44.09;95330.13;5117827;28;20218;-69
2022/07/12 00:19:49;;;;;;;3.22;1.70;;;;;;;16.68;44.30;95324.16;5118659;28;20207;-69
2022/07/12 00:22:16;;;;;;;1.80;1.70;;;;;;;16.68;44.30;95331.72;5118725;28;20187;-69
2022/07/12 00:24:44;;;;;;;2.55;1.90;;;;;;;16.68;44.23;95329.72;5117700;28;20207;-69
2022/07/12 00:27:11;;;;;;;1.92;1.70;;;;;;;16.69;44.20;95331.31;5118348;27;20216;-69
2022/07/12 00:29:37;;;;;;;2.13;1.73;;;;;;;16.69;45.11;95336.09;5116893;28;20217;-69
2022/07/12 00:32:05;;;;;;;1.88;1.75;;;;;;;16.66;44.71;95331.28;5118143;28;20188;-69
2022/07/12 00:34:32;;;;;;;1.90;1.80;;;;;;;16.61;45.13;95341.59;5117685;28;20219;-69
2022/07/12 00:36:58;;;;;;;2.78;1.95;;;;;;;16.59;44.83;95334.81;5118014;28;20180;-70
2022/07/12 00:39:25;;;;;;;2.10;1.70;;;;;;;16.58;44.67;95327.66;5118534;28;20184;-69
2022/07/12 00:41:53;;;;;;;3.17;1.92;;;;;;;16.55;44.91;95325.63;5118547;28;20180;-69
2022/07/12 00:44:20;;;;;;;2.03;1.70;;;;;;;16.54;44.73;95324.06;5117554;28;20533;-70
2022/07/12 00:46:47;;;;;;;1.67;1.58;;;;;;;16.53;44.82;95323.25;5118021;28;20219;-69
2022/07/12 00:49:15;;;;;;;2.30;1.80;;;;;;;16.55;44.70;95326.44;5117844;28;20196;-69
2022/07/12 00:51:42;;;;;;;1.85;1.75;;;;;;;16.55;44.54;95322.84;5117516;28;20619;-69
2022/07/12 00:54:09;;;;;;;1.80;1.70;;;;;;;16.55;44.80;95322.84;5117138;28;20199;-69
2022/07/12 00:56:35;;;;;;;1.90;1.70;;;;;;;16.55;44.93;95317.28;5117964;28;20203;-69
2022/07/12 00:59:04;;;;;;;2.53;1.90;;;;;;;16.51;45.10;95308.91;5117884;28;20218;-69
2022/07/12 01:01:31;;;;;;;4.70;1.88;;;;;;;16.52;44.97;95326.41;5117180;28;20566;-69
2022/07/12 01:03:57;;;;;;;2.45;1.60;;;;;;;16.51;44.70;95320.03;5117236;28;20253;-70
2022/07/12 01:06:25;;;;;;;1.80;1.70;;;;;;;16.51;45.26;95324.81;5117736;28;20207;-69
2022/07/12 01:08:52;;;;;;;1.88;1.60;;;;;;;16.52;44.77;95318.88;5117665;28;20176;-69
2022/07/12 01:11:18;;;;;;;1.77;1.67;;;;;;;16.55;45.24;95326.44;5117089;28;20199;-69
2022/07/12 01:13:46;;;;;;;2.28;1.80;;;;;;;16.54;44.89;95319.28;5116729;28;20208;-69
2022/07/12 01:16:15;;;;;;;1.88;1.40;;;;;;;16.53;44.87;95322.47;5116451;28;20188;-69
2022/07/12 01:18:42;;;;;;;2.65;1.80;;;;;;;16.51;45.13;95325.59;5116321;28;20199;-69
2022/07/12 01:21:09;;;;;;;2.28;2.00;;;;;;;16.49;45.36;95328.00;5116545;28;20191;-69
2022/07/12 01:23:38;;;;;;;1.85;1.70;;;;;;;16.49;45.29;95327.19;5117548;28;20261;-69
2022/07/12 01:26:05;;;;;;;3.42;1.60;;;;;;;16.50;44.95;95314.88;5116502;28;20216;-69
2022/07/12 01:28:32;;;;;;;2.08;1.88;;;;;;;16.48;44.75;95323.59;5116496;28;20199;-70
2022/07/12 01:30:59;;;;;;;1.75;1.60;;;;;;;16.49;44.91;95321.63;5116389;28;20203;-70
2022/07/12 01:33:27;;;;;;;2.13;2.03;;;;;;;16.46;45.99;95317.63;5117317;28;20180;-70
2022/07/12 01:35:54;;;;;;;2.17;2.00;;;;;;;16.20;47.98;95318.59;5117219;28;20202;-69
2022/07/12 01:38:21;;;;;;;2.33;1.80;;;;;;;16.03;47.41;95319.22;5116881;28;20184;-69
2022/07/12 01:40:49;;;;;;;2.20;1.85;;;;;;;15.86;48.93;95317.81;5116970;28;20199;-69
2022/07/12 01:43:16;;;;;;;2.08;1.90;;;;;;;15.71;48.92;95325.22;5116748;28;20604;-69
2022/07/12 01:45:43;;;;;;;2.15;1.80;;;;;;;15.61;50.16;95318.34;5116163;28;20264;-69
2022/07/12 01:48:10;;;;;;;1.60;1.50;;;;;;;15.48;51.03;95321.75;5117024;28;20196;-69
2022/07/12 01:50:37;;;;;;;1.92;1.75;;;;;;;15.38;51.30;95317.66;5116880;28;20184;-69
2022/07/12 01:53:06;;;;;;;3.58;2.05;;;;;;;15.27;51.44;95316.72;5115793;28;20591;-70
2022/07/12 01:55:33;;;;;;;3.80;2.08;;;;;;;15.15;51.69;95313.00;5115866;28;20202;-69
2022/07/12 01:58:01;;;;;;;3.13;1.85;;;;;;;15.13;52.10;95314.53;5115543;28;20188;-69
2022/07/12 02:00:28;;;;;;;2.92;1.85;;;;;;;15.16;52.11;95320.13;5116605;28;20589;-70
2022/07/12 02:02:55;;;;;;;2.53;1.90;;;;;;;15.12;52.85;95315.72;5115675;28;20200;-69
2022/07/12 02:05:22;;;;;;;3.38;2.10;;;;;;;15.03;52.68;95312.41;5116349;28;20196;-69
2022/07/12 02:07:50;;;;;;;2.33;1.83;;;;;;;15.04;53.52;95316.81;5116495;28;20598;-69
2022/07/12 02:10:17;;;;;;;2.92;2.00;;;;;;;15.00;53.51;95318.72;5115762;28;20195;-69
2022/07/12 02:12:43;;;;;;;3.35;2.17;;;;;;;14.92;53.87;95321.41;5115689;28;20188;-69
2022/07/12 02:15:12;;;;;;;2.20;2.00;;;;;;;14.95;54.09;95321.81;5116104;28;20231;-69
2022/07/12 02:17:39;;;;;;;3.45;2.25;;;;;;;14.87;53.91;95318.94;5116382;28;20240;-69
2022/07/12 02:20:07;;;;;;;2.92;2.30;;;;;;;14.81;54.03;95317.66;5115791;28;20191;-69
2022/07/12 02:22:34;;;;;;;3.33;2.13;;;;;;;14.78;54.45;95315.66;5116031;28;20584;-69
2022/07/12 02:25:01;;;;;;;3.95;1.90;;;;;;;14.73;54.19;95318.72;5116228;28;20202;-69
2022/07/12 02:27:28;;;;;;;2.72;2.40;;;;;;;14.63;54.93;95319.34;5115835;28;20685;-69
2022/07/12 02:29:54;;;;;;;2.50;2.30;;;;;;;14.56;55.55;95331.16;5116642;28;20190;-69
2022/07/12 02:32:22;;;;;;;3.35;2.40;;;;;;;14.43;55.57;95326.94;5116183;28;20195;-69
2022/07/12 02:34:50;;;;;;;4.28;2.33;;;;;;;14.36;55.50;95324.06;5115783;28;20238;-70
2022/07/12 02:37:17;;;;;;;3.67;2.80;;;;;;;14.32;56.80;95326.78;5116010;28;20190;-69
2022/07/12 02:39:43;;;;;;;3.45;2.63;;;;;;;14.24;55.92;95327.84;5114859;28;20207;-69
2022/07/12 02:42:10;;;;;;;3.70;2.47;;;;;;;14.23;56.37;95333.72;5116231;28;20244;-69
2022/07/12 02:44:37;;;;;;;3.20;2.65;;;;;;;14.20;56.53;95332.53;5115749;28;20188;-69
2022/07/12 02:47:04;;;;;;;3.42;2.40;;;;;;;14.14;57.14;95331.22;5115430;28;20210;-69
2022/07/12 02:49:32;;;;;;;2.53;2.33;;;;;;;14.16;56.77;95328.84;5115923;28;20195;-69
2022/07/12 02:51:59;;;;;;;2.95;2.55;;;;;;;14.16;57.41;95328.84;5114171;28;20683;-69
2022/07/12 02:54:26;;;;;;;2.75;2.55;;;;;;;14.15;57.56;95336.38;5115017;28;20195;-69
2022/07/12 02:56:52;;;;;;;4.32;2.38;;;;;;;14.10;56.91;95335.91;5115733;28;20184;-69
2022/07/12 02:59:19;;;;;;;4.13;2.70;;;;;;;14.15;57.18;95338.34;5115486;28;20203;-69
2022/07/12 03:01:46;;;;;;;2.95;2.67;;;;;;;14.13;57.36;95333.19;5115385;28;20207;-69
2022/07/12 03:04:13;;;;;;;4.28;2.88;;;;;;;14.11;58.23;95340.28;5115727;28;20184;-69
2022/07/12 03:06:41;;;;;;;3.47;2.63;;;;;;;14.13;57.76;95347.06;5115665;28;20199;-69
2022/07/12 03:09:08;;;;;;;6.75;3.28;;;;;;;14.08;58.54;95349.31;5115681;28;20180;-69
2022/07/12 03:11:34;;;;;;;4.15;2.78;;;;;;;14.06;58.85;95360.00;5114969;28;20191;-70
2022/07/12 03:14:01;;;;;;;4.50;2.67;;;;;;;14.03;58.92;95346.88;5115472;28;20210;-69
2022/07/12 03:16:28;;;;;;;4.80;2.88;;;;;;;13.98;59.19;95345.19;5115642;28;20225;-69
2022/07/12 03:18:55;;;;;;;5.07;3.05;;;;;;;13.92;59.50;95355.78;5115515;28;20184;-69
2022/07/12 03:21:22;;;;;;;6.22;3.17;;;;;;;13.84;58.71;95359.59;5114784;28;20199;-69
2022/07/12 03:23:50;;;;;;;5.00;3.30;;;;;;;13.76;58.87;95359.81;5115037;28;20253;-69
2022/07/12 03:26:17;;;;;;;4.03;3.03;;;;;;;13.71;58.59;95358.13;5115490;28;20194;-69
2022/07/12 03:28:44;;;;;;;6.60;3.38;;;;;;;13.68;58.85;95365.19;5114632;28;20235;-69
2022/07/12 03:31:11;;;;;;;4.43;3.30;;;;;;;13.65;58.95;95359.59;5115510;28;20593;-69
2022/07/12 03:33:38;;;;;;;5.00;2.85;;;;;;;13.60;58.70;95363.47;5115451;28;20187;-69
2022/07/12 03:36:06;;;;;;;4.00;2.75;;;;;;;13.58;58.81;95365.81;5115384;28;20195;-69
2022/07/12 03:38:33;;;;;;;5.30;2.92;;;;;;;13.56;59.35;95365.38;5115051;28;20186;-69
2022/07/12 03:41:02;;;;;;;5.15;3.30;;;;;;;13.56;58.33;95367.34;5114990;28;20206;-69
2022/07/12 03:43:28;;;;;;;3.75;3.13;;;;;;;13.60;58.27;95368.22;5115345;28;20215;-69
2022/07/12 03:45:55;;;;;;;3.75;2.95;;;;;;;13.59;58.22;95372.97;5114688;28;20199;-69
2022/07/12 03:48:22;;;;;;;4.90;3.08;;;;;;;13.61;58.14;95362.28;5114990;28;20234;-70
2022/07/12 03:50:49;;;;;;;4.40;3.20;;;;;;;13.60;58.20;95365.44;5115209;28;20213;-69
2022/07/12 03:53:16;;;;;;;3.85;2.92;;;;;;;13.64;58.15;95377.41;5114931;28;20235;-69
2022/07/12 03:55:42;;;;;;;3.17;2.60;;;;;;;13.65;58.21;95370.69;5114341;28;20204;-69
2022/07/12 03:58:10;;;;;;;7.60;3.80;;;;;;;13.69;58.32;95372.38;5115047;28;20180;-69
2022/07/12 04:00:37;;;;;;;4.75;3.38;;;;;;;13.68;58.36;95375.50;5115202;28;20256;-69
2022/07/12 04:03:04;;;;;;;3.75;3.30;;;;;;;13.67;57.94;95373.91;5115605;28;20198;-70
2022/07/12 04:05:31;;;;;;;4.50;3.58;;;;;;;13.63;57.99;95379.38;5117719;28;20195;-69
2022/07/12 04:08:00;;;;;;;3.88;3.40;;;;;;;13.62;58.58;95380.53;5118916;28;20214;-69
2022/07/12 04:10:27;;;;;;;5.35;3.85;;;;;;;13.64;58.47;95377.41;5117786;28;20207;-70
2022/07/12 04:12:54;;;;;;;4.13;3.70;;;;;;;13.61;58.70;95384.47;5118641;28;20202;-70
2022/07/12 04:15:22;;;;;;;3.85;3.10;;;;;;;13.62;58.54;95388.06;5117620;28;20208;-70
2022/07/12 04:17:49;;;;;;;5.95;4.32;;;;;;;13.61;58.50;95389.22;5117501;28;20179;-70
2022/07/12 04:20:16;;;;;;;6.20;3.58;;;;;;;13.60;58.54;95391.19;5117913;28;20197;-69
2022/07/12 04:22:43;;;;;;;3.67;3.13;;;;;;;13.62;58.61;95391.63;5118200;28;20215;-70
2022/07/12 04:25:10;;;;;;;4.50;3.53;;;;;;;13.65;59.11;95395.63;5118320;28;20180;-69
2022/07/12 04:27:37;;;;;;;3.80;3.40;;;;;;;13.65;58.75;95402.00;5117321;28;20727;-70
2022/07/12 04:30:04;;;;;;;8.20;6.55;;;;;;;13.66;58.64;95400.03;5118511;28;20184;-70
2022/07/12 04:32:32;;;;;;;5.65;4.78;;;;;;;13.68;58.76;95401.25;5118463;28;20606;-69
2022/07/12 04:34:59;;;;;;;5.15;4.43;;;;;;;13.72;58.25;95406.84;5117421;28;20199;-69
2022/07/12 04:37:26;;;;;;;4.20;3.80;;;;;;;13.73;58.73;95408.47;5118311;28;20203;-69
2022/07/12 04:39:53;;;;;;;6.35;3.97;;;;;;;13.79;59.24;95411.75;5118420;28;20210;-69
2022/07/12 04:42:20;;;;;;;5.32;4.25;;;;;;;13.82;59.31;95411.81;5118438;28;20184;-69
2022/07/12 04:44:47;;;;;;;4.53;3.80;;;;;;;13.90;59.79;95412.75;5118179;28;20180;-70
2022/07/12 04:47:14;;;;;;;4.75;4.32;;;;;;;13.97;59.34;95412.91;5117336;28;20219;-70
2022/07/12 04:49:42;;;;;;;6.20;4.60;;;;;;;14.00;59.58;95411.38;5118299;28;20211;-70
2022/07/12 04:52:09;;;;;;;5.13;4.63;;;;;;;14.03;59.54;95413.41;5116911;28;20226;-70
2022/07/12 04:54:36;;;;;;;4.97;4.53;;;;;;;14.09;59.31;95412.75;5117696;28;20535;-70
2022/07/12 04:57:03;;;;;;;6.30;4.40;;;;;;;14.15;58.76;95413.25;5117622;28;20195;-70
2022/07/12 04:59:29;;;;;;;5.95;4.28;;;;;;;14.20;58.38;95416.53;5116994;28;20199;-70
2022/07/12 05:01:56;;;;;;;5.68;4.05;;;;;;;14.29;58.72;95413.50;5117377;28;20539;-70
2022/07/12 05:04:23;;;;;;;6.80;4.30;;;;;;;14.35;58.63;95414.03;5116591;28;20196;-70
2022/07/12 05:06:52;;;;;;;5.35;4.53;;;;;;;14.41;58.79;95410.56;5117318;28;20180;-70
2022/07/12 05:09:18;;;;;;;5.45;3.95;;;;;;;14.49;59.09;95408.72;5117073;28;20199;-70
2022/07/12 05:11:45;;;;;;;7.65;4.70;;;;;;;14.54;59.09;95408.44;5117190;28;20206;-70
2022/07/12 05:14:12;;;;;;;8.32;4.25;;;;;;;14.57;58.54;95406.91;5117328;28;20200;-69
2022/07/12 05:16:39;;;;;;;7.85;5.05;;;;;;;14.66;58.39;95413.00;5117276;28;20195;-70
2022/07/12 05:19:06;;;;;;;9.05;5.13;;;;;;;14.72;58.38;95405.19;5117496;28;20184;-70
2022/07/12 05:21:34;;;;;;;10.90;5.00;;;;;;;14.74;58.23;95413.91;5116719;28;20215;-70
2022/07/12 05:24:03;;;;;;;6.25;4.57;;;;;;;14.72;58.71;95402.41;5117565;28;20188;-70
2022/07/12 05:26:30;;;;;;;6.70;4.43;;;;;;;14.74;58.63;95416.69;5117437;28;20196;-70
2022/07/12 05:28:56;;;;;;;7.00;4.47;;;;;;;14.78;59.13;95412.81;5116433;28;20211;-70
2022/07/12 05:31:23;;;;;;;7.20;4.82;;;;;;;14.84;59.64;95416.88;5117237;28;20188;-70
2022/07/12 05:33:50;;;;;;;6.88;4.85;;;;;;;14.89;59.23;95413.00;5116984;28;20622;-70
2022/07/12 05:36:17;;;;;;;7.35;4.28;;;;;;;14.99;59.54;95411.53;5116570;28;20191;-70
2022/07/12 05:38:43;;;;;;;6.93;5.05;;;;;;;15.09;59.03;95410.91;5117146;28;20515;-70
2022/07/12 05:41:12;;;;;;;7.45;4.50;;;;;;;15.16;58.23;95408.25;5117112;28;20184;-70
2022/07/12 05:43:39;;;;;;;5.20;3.53;;;;;;;15.27;57.22;95406.41;5116695;28;20229;-70
2022/07/12 05:46:06;;;;;;;4.20;3.38;;;;;;;15.37;56.12;95404.97;5117060;28;20199;-70
2022/07/12 05:48:32;;;;;;;3.25;2.92;;;;;;;15.46;54.97;95399.13;5116846;28;20211;-70
2022/07/12 05:53:21;;;;;;;4.07;2.33;;;;;;;15.52;53.71;95397.63;5115957;28;20196;-70
2022/07/12 05:53:45;;;;;;;3.55;2.25;;;;;;;15.61;53.74;95401.75;5116187;28;20235;-69
2022/07/12 05:56:13;;;;;;;3.10;2.33;;;;;;;15.68;53.02;95403.03;5115852;28;20303;-69
2022/07/12 05:58:40;;;;;;;3.13;2.83;;;;;;;15.72;53.40;95412.22;5116076;28;20191;-69
2022/07/12 06:01:07;;;;;;;4.03;2.20;;;;;;;15.75;51.63;95406.69;5116638;28;20248;-70
2022/07/12 06:03:34;;;;;;;3.35;2.22;;;;;;;15.81;51.29;95402.41;5116638;28;20180;-70
2022/07/12 06:06:01;;;;;;;4.03;2.47;;;;;;;15.87;51.24;95402.91;5115687;28;20192;-70
2022/07/12 06:08:27;;;;;;;2.67;2.28;;;;;;;15.92;51.55;95396.19;5116551;28;20208;-69
2022/07/12 06:10:54;;;;;;;4.20;2.35;;;;;;;15.95;51.10;95406.56;5116526;28;20192;-70
2022/07/12 06:13:24;;;;;;;3.60;2.55;;;;;;;15.99;51.02;95394.28;5115974;28;20199;-70
2022/07/12 06:15:51;;;;;;;3.53;2.38;;;;;;;16.01;50.78;95391.94;5115490;28;20196;-70
2022/07/12 06:18:17;;;;;;;3.55;2.63;;;;;;;16.04;50.84;95393.94;5116421;28;20191;-70
2022/07/12 06:20:44;;;;;;;3.63;2.33;;;;;;;16.07;50.77;95387.59;5115456;28;20199;-70
2022/07/12 06:23:12;;;;;;;2.83;2.55;;;;;;;16.10;50.28;95400.75;5116286;28;20199;-70
2022/07/12 06:25:39;;;;;;;2.60;2.40;;;;;;;16.13;50.45;95390.88;5114459;28;20207;-70
2022/07/12 06:28:07;;;;;;;2.83;2.30;;;;;;;16.18;50.41;95393.28;5116016;28;20223;-69
2022/07/12 06:30:35;;;;;;;3.65;2.60;;;;;;;16.22;50.78;95402.47;5114972;28;20204;-69
2022/07/12 06:33:01;;;;;;;4.28;2.30;;;;;;;16.24;50.31;95396.53;5115212;28;20210;-69
2022/07/12 06:35:28;;;;;;;3.03;2.60;;;;;;;16.25;50.99;95398.13;5115144;28;20529;-69
2022/07/12 06:37:55;;;;;;;3.38;3.08;;;;;;;16.28;51.21;95395.41;5115768;28;20188;-70
2022/07/12 06:40:22;;;;;;;4.40;3.42;;;;;;;16.34;51.42;95391.09;5115134;28;20187;-70
2022/07/12 06:42:49;;;;;;;3.10;2.72;;;;;;;16.39;51.21;95397.50;5115078;28;20192;-70
2022/07/12 06:45:16;;;;;;;3.92;2.80;;;;;;;16.42;52.02;95386.38;5116082;28;20184;-70
2022/07/12 06:47:44;;;;;;;3.08;2.80;;;;;;;16.45;51.60;95391.19;5115832;28;20203;-70
2022/07/12 06:50:11;;;;;;;4.00;2.65;;;;;;;16.47;51.43;95394.38;5115680;28;20184;-70
2022/07/12 06:52:38;;;;;;;2.90;2.35;;;;;;;16.51;51.61;95391.63;5114919;28;20232;-69
2022/07/12 06:55:06;;;;;;;4.45;2.58;;;;;;;16.55;51.45;95384.09;5115751;28;20198;-69
2022/07/12 06:57:33;;;;;;;5.75;3.60;;;;;;;16.59;51.72;95384.94;5115818;28;20188;-69
2022/07/12 07:00:00;;;;;;;7.25;2.95;;;;;;;16.64;51.82;95383.81;5114976;28;20198;-70
2022/07/12 07:02:27;;;;;;;3.80;2.70;;;;;;;16.69;52.26;95387.03;5114686;28;20252;-70
2022/07/12 07:04:55;;;;;;;3.67;2.33;;;;;;;16.70;51.12;95385.84;5114515;28;20202;-70
2022/07/12 07:07:22;;;;;;;3.28;2.22;;;;;;;16.73;50.70;95390.63;5115737;28;20554;-69
2022/07/12 07:09:48;;;;;;;2.92;1.98;;;;;;;16.74;50.06;95386.72;5115783;28;20207;-70
2022/07/12 07:12:15;;;;;;;2.88;1.92;;;;;;;16.75;50.58;95382.75;5115563;28;20199;-70
2022/07/12 07:14:42;;;;;;;2.92;1.90;;;;;;;16.77;49.54;95377.56;5115942;28;20235;-70
2022/07/12 07:17:09;;;;;;;3.35;2.55;;;;;;;16.82;50.19;95382.00;5115745;28;20199;-70
2022/07/12 07:19:37;;;;;;;2.13;2.03;;;;;;;16.86;49.34;95382.03;5115616;28;20175;-69
2022/07/12 07:22:05;;;;;;;4.63;2.90;;;;;;;16.89;48.25;95387.63;5115468;28;20198;-70
2022/07/12 07:24:32;;;;;;;3.22;2.20;;;;;;;16.92;48.28;95386.03;5116400;28;20187;-70
2022/07/12 07:26:59;;;;;;;3.15;2.20;;;;;;;16.94;48.47;95386.47;5115595;28;20191;-70
2022/07/12 07:32:10;;;;;;;3.40;1.92;;;;;;;17.02;47.92;95383.34;5115535;28;20179;-70
2022/07/12 07:34:37;;;;;;;1.85;1.67;;;;;;;17.05;47.43;95385.34;5115747;28;20191;-70
2022/07/12 07:37:06;;;;;;;2.55;2.03;;;;;;;17.08;46.86;95379.00;5116020;28;20184;-70
2022/07/12 07:39:34;;;;;;;2.50;2.30;;;;;;;17.15;47.25;95374.69;5119057;28;20271;-70
2022/07/12 07:42:00;;;;;;;2.92;2.00;;;;;;;17.21;47.56;95382.28;5119621;28;20184;-70
2022/07/12 07:44:27;;;;;;;2.90;1.98;;;;;;;17.24;46.78;95372.34;5119467;28;20184;-69
2022/07/12 07:46:54;;;;;;;3.03;2.13;;;;;;;17.25;46.45;95376.75;5119343;28;20260;-70
2022/07/12 07:49:21;;;;;;;3.53;2.30;;;;;;;17.28;47.02;95376.78;5118901;28;20215;-70
2022/07/12 07:51:47;;;;;;;2.50;1.70;;;;;;;17.36;47.64;95369.25;5119127;28;20195;-70
2022/07/12 07:54:16;;;;;;;2.55;1.60;;;;;;;17.42;47.61;95375.22;5119177;28;20187;-70
2022/07/12 07:56:42;;;;;;;2.45;1.60;;;;;;;17.46;48.29;95365.69;5118836;28;20576;-70
2022/07/12 07:59:09;;;;;;;3.08;1.77;;;;;;;17.51;47.58;95367.34;5119300;28;20369;-70
2022/07/12 08:01:46;;;;;;;3.20;2.13;;;;;;;17.53;47.74;95367.72;5119431;28;20184;-70
2022/07/12 08:04:13;;;;;;;2.33;1.52;;;;;;;17.56;47.61;95369.75;5118227;28;20202;-70
2022/07/12 08:06:39;;;;;;;3.88;3.40;;;;;;;17.60;46.78;95364.97;5118736;28;20202;-70
2022/07/12 08:09:06;;;;;;;7.30;6.68;;;;;;;17.69;47.19;95364.63;5117907;28;20222;-70
2022/07/12 08:11:35;;;;;;;2.95;2.58;;;;;;;17.73;44.91;95369.03;5118138;28;20191;-70
2022/07/12 08:14:02;;;;;;;2.03;1.77;;;;;;;17.72;45.25;95363.81;5119245;28;20204;-70
2022/07/12 08:16:28;;;;;;;1.77;1.60;;;;;;;17.74;46.38;95367.81;5118870;28;20191;-70
2022/07/12 08:18:55;;;;;;;3.03;2.53;;;;;;;17.79;44.53;95361.91;5117858;28;20199;-70
2022/07/12 08:21:22;;;;;;;4.95;2.75;;;;;;;17.84;44.20;95362.72;5118143;28;20195;-70
2022/07/12 08:23:49;;;;;;;1.92;1.70;;;;;;;17.85;44.02;95351.16;5118952;28;20191;-70
2022/07/12 08:26:16;;;;;;;3.25;1.90;;;;;;;17.86;43.92;95360.31;5117757;28;20210;-70
2022/07/12 08:28:44;;;;;;;2.00;1.85;;;;;;;17.87;42.72;95348.00;5118516;28;20204;-70
2022/07/12 08:31:13;;;;;;;2.55;1.98;;;;;;;17.92;43.45;95353.97;5117634;28;20211;-70
2022/07/12 08:33:40;;;;;;;4.00;1.90;;;;;;;17.98;42.66;95351.63;5118552;28;20184;-70
2022/07/12 08:36:08;;;;;;;3.58;2.40;;;;;;;18.05;44.15;95354.44;5117667;28;20296;-70
2022/07/12 08:38:36;;;;;;;3.55;1.85;;;;;;;18.15;43.17;95355.63;5117793;28;20257;-70
2022/07/12 08:41:03;;;;;;;2.28;1.45;;;;;;;18.23;43.11;95360.84;5117566;28;20188;-70
2022/07/12 08:43:30;;;;;;;2.58;1.30;;;;;;;18.32;41.42;95346.50;5118155;28;20214;-70
2022/07/12 08:46:03;;;;;;;1.83;1.73;;;;;;;18.40;43.03;95355.69;5118085;28;20184;-69
2022/07/12 08:48:30;;;;;;;1.75;1.40;;;;;;;18.53;43.82;95354.13;5116917;28;20215;-69
2022/07/12 08:51:04;;;;;;;2.25;1.70;;;;;;;18.55;41.90;95337.75;5116593;28;20283;-70
2022/07/12 08:53:31;;;;;;;3.78;1.70;;;;;;;18.57;41.14;95340.16;5118142;28;20231;-70
2022/07/12 08:55:58;;;;;;;3.05;1.92;;;;;;;18.49;39.61;95337.34;5117307;28;20199;-70
2022/07/12 08:58:25;;;;;;;1.55;1.45;;;;;;;18.41;39.35;95343.31;5118113;27;20195;-70
2022/07/12 09:00:52;;;;;;;2.17;1.80;;;;;;;18.40;39.23;95336.94;5117709;28;20188;-70
2022/07/12 09:03:20;;;;;;;1.92;1.40;;;;;;;18.46;39.78;95337.34;5117662;28;20195;-70
2022/07/12 09:05:52;;;;;;;2.25;1.30;;;;;;;18.59;40.74;95334.94;5116770;28;20611;-70
2022/07/12 09:08:19;;;;;;;2.53;1.40;;;;;;;18.69;39.63;95334.97;5117785;28;20204;-70
2022/07/12 09:10:54;;;;;;;2.10;1.40;;;;;;;18.80;38.87;95332.19;5116945;28;20219;-70
2022/07/12 09:13:21;;;;;;;1.70;1.40;;;;;;;18.86;38.99;95329.81;5117970;28;20603;-70
2022/07/12 09:15:48;;;;;;;1.90;1.52;;;;;;;18.94;38.57;95329.41;5117473;28;20538;-70
2022/07/12 09:18:17;;;;;;;2.38;1.80;;;;;;;19.08;39.26;95327.78;5116747;28;20192;-70
2022/07/12 09:20:52;;;;;;;1.50;1.40;;;;;;;19.20;41.27;95319.75;5117556;28;20195;-70
2022/07/12 09:23:19;;;;;;;1.17;1.17;;;;;;;19.37;39.13;95326.53;5116729;28;20198;-70
2022/07/12 09:25:47;;;;;;;1.65;1.33;;;;;;;19.46;40.25;95317.69;5116333;28;20196;-70
2022/07/12 09:28:14;;;;;;;1.65;1.48;;;;;;;19.57;39.03;95314.88;5116184;28;20195;-70
2022/07/12 09:30:48;;;;;;;1.90;1.70;;;;;;;19.59;39.48;95316.06;5117489;28;20180;-70
2022/07/12 09:36:09;;;;;;;3.25;1.70;;;;;;;19.78;37.71;95322.41;5117183;28;20190;-70
2022/07/12 09:38:36;;;;;;;3.10;2.33;;;;;;;19.72;36.50;95324.84;5116173;28;20196;-70
2022/07/12 09:41:03;;;;;;;3.20;1.67;;;;;;;19.74;36.30;95318.84;5117171;28;20275;-70
2022/07/12 09:43:30;;;;;;;2.53;1.70;;;;;;;19.81;35.23;95318.81;5116909;28;20572;-70
2022/07/12 09:45:57;;;;;;;2.30;1.35;;;;;;;19.89;37.22;95314.75;5117073;28;20248;-70
2022/07/12 09:48:24;;;;;;;2.90;1.45;;;;;;;19.95;38.49;95310.34;5116071;28;20200;-70
2022/07/12 09:50:52;;;;;;;1.45;1.20;;;;;;;20.02;35.87;95315.91;5116996;28;20203;-70
2022/07/12 09:53:23;;;;;;;1.42;1.15;;;;;;;20.10;36.98;95320.25;5115835;28;20230;-70
2022/07/12 09:55:52;;;;;;;1.75;1.40;;;;;;;20.26;38.01;95316.97;5116994;28;20184;-70
2022/07/12 09:58:23;;;;;;;1.23;1.13;;;;;;;20.40;37.32;95313.25;5116972;28;20265;-70
2022/07/12 10:00:51;;;;;;;2.00;1.35;;;;;;;20.48;39.24;95317.63;5114760;28;20208;-70
2022/07/12 10:03:22;;;;;;;2.40;1.80;;;;;;;20.59;36.24;95309.97;5115982;28;20191;-70
2022/07/12 10:05:50;;;;;;;2.03;1.60;;;;;;;20.62;36.42;95309.13;5116705;28;20188;-70
2022/07/12 10:08:18;;;;;;;1.75;1.58;;;;;;;20.63;35.36;95316.34;5116385;28;20611;-69
2022/07/12 10:10:46;;;;;;;2.80;1.60;;;;;;;20.66;32.50;95307.13;5115620;28;20215;-70
2022/07/12 10:13:13;;;;;;;1.67;1.40;;;;;;;20.74;32.41;95313.44;5116210;28;20200;-70
2022/07/12 10:15:43;;;;;;;1.20;1.10;;;;;;;20.78;33.22;95311.41;5116476;28;20188;-70
2022/07/12 10:18:16;;;;;;;1.45;1.25;;;;;;;20.82;32.77;95303.75;5116551;28;20205;-70
2022/07/12 10:20:43;;;;;;;2.42;1.33;;;;;;;20.89;35.97;95297.31;5116491;28;20184;-70
2022/07/12 10:23:34;;;;;;;1.30;1.20;;;;;;;20.98;37.28;95303.22;5116530;28;20187;-70
2022/07/12 10:26:05;;;;;;;1.30;1.20;;;;;;;20.99;36.42;95306.81;5116273;28;20180;-69
2022/07/12 10:28:59;;;;;;;1.30;1.20;;;;;;;21.09;36.08;95298.28;5115937;28;20615;-69
2022/07/12 10:31:26;;;;;;;2.70;1.50;;;;;;;21.18;35.24;95297.03;5116374;28;20184;-70
2022/07/12 10:34:12;;;;;;;4.03;1.80;;;;;;;21.26;34.48;95310.56;5115383;28;20192;-69
2022/07/12 10:37:13;;;;;;;1.38;1.25;;;;;;;21.29;33.26;95297.72;5115230;28;20207;-69
2022/07/12 10:39:40;;;;;;;2.63;1.65;;;;;;;21.35;34.33;95293.25;5113108;28;20683;-69
2022/07/12 10:42:17;;;;;;;2.38;1.42;;;;;;;21.33;32.25;95290.06;5116296;28;20194;-69
2022/07/12 10:44:47;;;;;;;1.35;1.25;;;;;;;21.13;32.47;95284.22;5115112;28;20200;-69
2022/07/12 10:47:17;;;;;;;1.77;1.30;;;;;;;21.02;35.80;95295.56;5115972;28;20192;-70
2022/07/12 10:49:48;;;;;;;2.35;1.60;;;;;;;21.16;34.57;95289.03;5115442;28;20212;-69
2022/07/12 10:52:26;;;;;;;2.83;1.60;;;;;;;21.28;34.79;95282.06;5114857;28;20284;-70
2022/07/12 10:55:20;;;;;;;1.40;1.30;;;;;;;21.34;34.61;95281.25;5114989;28;20195;-69
2022/07/12 10:57:54;;;;;;;1.55;1.45;;;;;;;21.37;34.75;95286.03;5068390;28;20212;-69
2022/07/12 11:00:22;;;;;;;2.15;1.95;;;;;;;21.31;34.83;95289.66;5115960;28;20266;-69
2022/07/12 11:02:49;;;;;;;1.83;1.45;;;;;;;21.35;34.48;95287.63;5114791;28;20534;-69
2022/07/12 11:05:16;;;;;;;2.95;1.33;;;;;;;21.43;35.93;95282.78;5115743;28;20191;-69
2022/07/12 11:07:43;;;;;;;2.50;1.40;;;;;;;21.55;36.84;95290.63;5115469;28;20187;-69
2022/07/12 11:10:13;;;;;;;1.98;1.38;;;;;;;21.69;35.60;95290.47;5114856;28;20215;-69
2022/07/12 11:12:40;;;;;;;1.95;1.63;;;;;;;21.67;35.72;95278.06;5114534;28;20655;-70
2022/07/12 11:15:10;;;;;;;1.40;1.30;;;;;;;21.68;35.06;95283.28;5114772;28;20219;-69
2022/07/12 11:17:36;;;;;;;1.60;1.50;;;;;;;21.81;37.16;95289.09;5115738;28;20188;-69
2022/07/12 11:20:09;;;;;;;5.82;1.52;;;;;;;21.90;36.04;95294.22;5115766;28;20248;-70
2022/07/12 11:22:38;;;;;;;2.20;1.80;;;;;;;21.93;36.35;95285.72;5115447;28;20279;-69
2022/07/12 11:25:07;;;;;;;1.77;1.42;;;;;;;21.99;35.53;95278.44;5115497;28;20192;-69
2022/07/12 11:27:35;;;;;;;1.83;1.30;;;;;;;22.09;34.51;95293.56;5114463;28;20266;-71
2022/07/12 11:30:02;;;;;;;1.50;1.40;;;;;;;22.16;34.70;95295.50;5115098;28;20212;-69
2022/07/12 11:32:39;;;;;;;1.40;1.30;;;;;;;22.02;33.08;95283.22;5114739;28;20210;-69
2022/07/12 11:35:18;;;;;;;1.73;1.42;;;;;;;21.91;34.43;95282.56;5114553;28;20191;-69
2022/07/12 11:37:53;;;;;;;1.60;1.50;;;;;;;21.96;33.46;95278.47;5115202;28;20190;-69
2022/07/12 11:40:28;;;;;;;2.10;1.70;;;;;;;22.07;34.81;95276.31;5115577;28;20194;-69
2022/07/12 11:42:56;;;;;;;2.25;1.42;;;;;;;21.99;34.36;95277.66;5115448;28;20194;-69